Time;durP1;ratioP1;P1;durP2;ratioP2;P2;SDS_P1;SDS_P2;PMS_P1;PMS_P2;Temp;Humidity;BMP_temperature;BMP_pressure;BME280_temperature;BME280_humidity;BME280_pressure;Samples;Min_cycle;Max_cycle;Signal;HPM_P1;HPM_P2
2024/03/16 00:01:32;;;;;;;1.27;0.60;;;;;;;7.73;100.00;97127.22;5059923;28;20081;-64
2024/03/16 00:03:59;;;;;;;1.25;0.50;;;;;;;7.80;100.00;97129.75;5071576;28;20119;-64
2024/03/16 00:06:26;;;;;;;0.82;0.47;;;;;;;7.79;100.00;97130.84;5059185;28;20037;-64
2024/03/16 00:08:52;;;;;;;1.80;0.57;;;;;;;7.83;100.00;97136.56;5056792;28;20096;-64
2024/03/16 00:11:19;;;;;;;2.13;0.60;;;;;;;7.87;100.00;97137.72;5056524;28;20106;-64
2024/03/16 00:13:46;;;;;;;0.38;0.30;;;;;;;7.85;100.00;97139.84;5055210;28;20040;-64
2024/03/16 00:16:12;;;;;;;1.20;0.38;;;;;;;7.81;100.00;97140.31;5055259;28;20052;-64
2024/03/16 00:18:39;;;;;;;0.68;0.47;;;;;;;7.86;100.00;97144.16;5054478;28;20041;-64
2024/03/16 00:21:06;;;;;;;1.35;0.40;;;;;;;7.84;100.00;97132.78;5057394;28;20123;-64
2024/03/16 00:23:32;;;;;;;2.80;0.63;;;;;;;7.74;100.00;97131.53;5053377;28;20090;-64
2024/03/16 00:26:01;;;;;;;0.93;0.45;;;;;;;7.78;100.00;97138.09;5047141;28;20041;-64
2024/03/16 00:28:28;;;;;;;1.90;0.55;;;;;;;7.78;100.00;97129.19;5058691;28;20046;-65
2024/03/16 00:30:54;;;;;;;1.17;0.43;;;;;;;7.80;100.00;97127.91;5058435;28;20048;-64
2024/03/16 00:33:21;;;;;;;1.08;0.50;;;;;;;7.83;100.00;97123.06;5064428;28;20040;-64
2024/03/16 00:35:48;;;;;;;0.93;0.35;;;;;;;7.80;100.00;97132.47;5054318;28;20047;-64
2024/03/16 00:38:15;;;;;;;1.23;0.50;;;;;;;7.80;100.00;97124.38;5053177;28;20074;-65
2024/03/16 00:40:41;;;;;;;2.55;0.50;;;;;;;7.81;100.00;97128.69;5053722;28;20044;-64
2024/03/16 00:43:08;;;;;;;0.95;0.50;;;;;;;7.79;100.00;97114.66;5064249;28;20047;-64
2024/03/16 00:45:35;;;;;;;0.63;0.25;;;;;;;7.85;100.00;97116.38;5046311;28;20128;-64
2024/03/16 00:48:04;;;;;;;1.70;0.43;;;;;;;7.88;100.00;97131.25;5056837;28;20040;-65
2024/03/16 00:50:33;;;;;;;0.90;0.50;;;;;;;7.90;100.00;97121.06;5052428;28;20064;-64
2024/03/16 00:52:59;;;;;;;2.65;0.38;;;;;;;7.93;100.00;97105.22;5050575;28;20046;-64
2024/03/16 00:55:26;;;;;;;0.47;0.32;;;;;;;7.98;100.00;97103.69;5061193;28;20040;-65
2024/03/16 00:57:52;;;;;;;1.65;0.65;;;;;;;8.03;100.00;97118.06;5052779;28;20055;-65
2024/03/16 01:00:20;;;;;;;1.77;0.40;;;;;;;8.02;100.00;97126.41;5060649;28;20633;-65
2024/03/16 01:02:47;;;;;;;1.00;0.50;;;;;;;8.12;100.00;97128.47;5061045;28;20059;-65
2024/03/16 01:05:13;;;;;;;1.25;0.50;;;;;;;8.05;100.00;97134.84;5049255;28;20041;-65
2024/03/16 01:07:40;;;;;;;0.40;0.20;;;;;;;8.02;100.00;97129.09;5065414;28;20044;-64
2024/03/16 01:10:06;;;;;;;1.67;0.47;;;;;;;7.86;100.00;97119.91;5051317;28;20046;-64
2024/03/16 01:12:33;;;;;;;2.08;0.60;;;;;;;7.78;100.00;97124.63;5066922;28;20041;-64
2024/03/16 01:15:00;;;;;;;1.63;0.40;;;;;;;7.78;100.00;97121.13;5060583;28;20047;-65
2024/03/16 01:17:27;;;;;;;2.22;0.43;;;;;;;7.76;100.00;97118.66;5061134;28;20044;-65
2024/03/16 01:19:54;;;;;;;1.17;0.50;;;;;;;7.69;100.00;97120.66;5056257;28;20041;-64
2024/03/16 01:22:21;;;;;;;0.40;0.30;;;;;;;7.70;100.00;97111.50;5051821;28;20041;-64
2024/03/16 01:24:49;;;;;;;0.88;0.40;;;;;;;7.71;100.00;97106.97;5060870;28;20036;-64
2024/03/16 01:27:16;;;;;;;1.05;0.38;;;;;;;7.66;100.00;97113.06;5061901;28;20059;-64
2024/03/16 01:29:42;;;;;;;0.43;0.20;;;;;;;7.70;100.00;97102.63;5051500;28;20059;-64
2024/03/16 01:32:09;;;;;;;1.05;0.40;;;;;;;7.70;100.00;97097.25;5058720;28;20055;-64
2024/03/16 01:34:35;;;;;;;3.83;0.70;;;;;;;7.65;100.00;97101.47;5056597;28;20055;-64
2024/03/16 01:37:02;;;;;;;1.85;0.52;;;;;;;7.68;100.00;97106.34;5063474;28;20685;-64
2024/03/16 01:39:29;;;;;;;1.35;0.60;;;;;;;7.71;100.00;97096.19;5065044;28;20177;-64
2024/03/16 01:41:56;;;;;;;2.22;0.55;;;;;;;7.78;100.00;97108.44;5059171;28;20495;-64
2024/03/16 01:44:22;;;;;;;2.75;0.47;;;;;;;7.88;100.00;97107.00;5058666;28;20048;-64
2024/03/16 01:46:49;;;;;;;1.73;0.68;;;;;;;7.80;100.00;97102.81;5062754;28;20064;-64
2024/03/16 01:49:16;;;;;;;0.73;0.50;;;;;;;7.84;100.00;97106.66;5065252;28;20044;-65
2024/03/16 01:51:42;;;;;;;2.90;0.60;;;;;;;7.81;100.00;97110.66;5058560;28;20101;-65
2024/03/16 01:54:10;;;;;;;0.95;0.40;;;;;;;7.79;100.00;97103.88;5058942;28;20102;-65
2024/03/16 01:56:37;;;;;;;2.53;0.40;;;;;;;7.81;100.00;97107.97;5061454;28;20036;-65
2024/03/16 01:59:03;;;;;;;2.38;0.70;;;;;;;7.77;100.00;97108.69;5055915;28;20602;-64
2024/03/16 02:01:31;;;;;;;3.65;0.70;;;;;;;7.84;100.00;97103.13;5051022;28;20045;-64
2024/03/16 02:03:58;;;;;;;0.70;0.38;;;;;;;7.85;100.00;97102.09;5062325;28;20488;-64
2024/03/16 02:06:26;;;;;;;4.00;0.57;;;;;;;7.73;100.00;97100.25;5052744;28;20167;-64
2024/03/16 02:08:54;;;;;;;1.20;0.40;;;;;;;7.71;100.00;97112.34;5065175;28;20151;-64
2024/03/16 02:11:21;;;;;;;1.17;0.55;;;;;;;7.72;100.00;97101.31;5066470;28;20052;-65
2024/03/16 02:13:48;;;;;;;1.60;0.50;;;;;;;7.70;100.00;97099.94;5057527;28;20061;-65
2024/03/16 02:16:15;;;;;;;1.38;0.50;;;;;;;7.70;100.00;97094.53;5060631;28;20086;-65
2024/03/16 02:18:42;;;;;;;0.70;0.40;;;;;;;7.67;100.00;97101.25;5053977;28;20049;-65
2024/03/16 02:21:10;;;;;;;2.47;0.57;;;;;;;7.66;100.00;97103.09;5061440;28;20090;-64
2024/03/16 02:23:37;;;;;;;1.75;0.43;;;;;;;7.68;100.00;97098.28;5048638;28;20519;-64
2024/03/16 02:26:04;;;;;;;2.97;0.60;;;;;;;7.65;100.00;97097.94;5053332;28;20454;-64
2024/03/16 02:28:31;;;;;;;1.08;0.50;;;;;;;7.71;100.00;97096.19;5057735;28;20045;-65
2024/03/16 02:30:58;;;;;;;0.98;0.60;;;;;;;7.67;100.00;97104.72;5051631;28;20041;-65
2024/03/16 02:33:27;;;;;;;1.52;0.60;;;;;;;7.66;100.00;97105.78;5055511;28;20157;-65
2024/03/16 02:35:55;;;;;;;2.00;0.50;;;;;;;7.67;100.00;97106.63;5054466;28;20706;-64
2024/03/16 02:38:22;;;;;;;1.92;0.57;;;;;;;7.62;100.00;97112.72;5043086;28;20055;-65
2024/03/16 02:40:48;;;;;;;1.25;0.60;;;;;;;7.59;100.00;97115.88;5060731;28;20044;-64
2024/03/16 02:43:15;;;;;;;2.33;0.60;;;;;;;7.63;100.00;97106.25;5058825;28;20044;-65
2024/03/16 02:45:42;;;;;;;0.77;0.40;;;;;;;7.60;100.00;97100.56;5051153;28;20129;-64
2024/03/16 02:48:09;;;;;;;2.78;0.73;;;;;;;7.55;100.00;97101.25;5060850;28;20123;-65
2024/03/16 02:50:36;;;;;;;1.02;0.52;;;;;;;7.59;100.00;97115.09;5057402;28;20142;-64
2024/03/16 02:53:03;;;;;;;2.95;0.73;;;;;;;7.66;100.00;97105.78;5060890;28;20484;-64
2024/03/16 02:55:30;;;;;;;4.30;0.75;;;;;;;7.68;100.00;97108.25;5059821;28;20127;-64
2024/03/16 02:57:56;;;;;;;3.40;0.70;;;;;;;7.75;100.00;97110.81;5054845;28;20099;-64
2024/03/16 03:00:24;;;;;;;3.17;0.70;;;;;;;7.78;100.00;97111.13;5056986;28;20041;-64
2024/03/16 03:02:51;;;;;;;2.28;0.70;;;;;;;7.84;100.00;97122.84;5062024;28;20468;-64
2024/03/16 03:05:20;;;;;;;3.47;0.73;;;;;;;7.84;100.00;97120.16;5055178;28;20052;-65
2024/03/16 03:07:48;;;;;;;0.98;0.40;;;;;;;7.82;100.00;97111.50;5056600;28;20507;-64
2024/03/16 03:10:14;;;;;;;3.97;0.70;;;;;;;7.84;100.00;97125.53;5054517;28;20056;-64
2024/03/16 03:12:41;;;;;;;5.35;0.93;;;;;;;7.88;100.00;97128.56;5055691;28;20060;-64
2024/03/16 03:15:09;;;;;;;1.17;0.60;;;;;;;7.94;100.00;97133.84;5064948;28;20044;-65
2024/03/16 03:17:35;;;;;;;1.65;0.50;;;;;;;8.11;100.00;97138.44;5061365;28;20045;-64
2024/03/16 03:20:05;;;;;;;3.63;0.60;;;;;;;8.14;100.00;97142.53;5059262;28;20032;-65
2024/03/16 03:22:32;;;;;;;1.63;0.60;;;;;;;8.11;100.00;97146.50;5057589;28;20512;-64
2024/03/16 03:24:59;;;;;;;2.40;0.57;;;;;;;8.14;100.00;97162.22;5058578;28;20040;-65
2024/03/16 03:27:26;;;;;;;4.35;0.60;;;;;;;7.99;100.00;97164.66;5048558;28;20055;-64
2024/03/16 03:29:52;;;;;;;1.38;0.55;;;;;;;7.76;100.00;97174.44;5041330;28;20032;-64
2024/03/16 03:32:19;;;;;;;3.67;0.73;;;;;;;7.70;100.00;97178.09;5055918;28;20091;-64
2024/03/16 03:34:46;;;;;;;4.28;1.27;;;;;;;7.67;100.00;97190.97;5039173;28;20044;-64
2024/03/16 03:37:13;;;;;;;1.38;0.60;;;;;;;7.57;100.00;97201.53;5061479;28;20119;-64
2024/03/16 03:39:39;;;;;;;4.88;0.70;;;;;;;7.58;100.00;97215.81;5039486;28;20132;-65
2024/03/16 03:42:06;;;;;;;2.08;0.63;;;;;;;7.50;100.00;97220.53;5065110;28;20040;-64
2024/03/16 03:44:38;;;;;;;3.63;0.77;;;;;;;7.45;100.00;97233.06;5037822;28;20051;-65
2024/03/16 03:47:07;;;;;;;2.83;1.02;;;;;;;7.43;100.00;97244.06;5055190;28;20047;-65
2024/03/16 03:49:35;;;;;;;3.60;1.02;;;;;;;7.50;100.00;97252.84;5035643;28;20040;-65
2024/03/16 03:52:02;;;;;;;3.20;0.90;;;;;;;7.46;100.00;97261.63;5060738;28;20041;-65
2024/03/16 03:54:32;;;;;;;3.75;1.02;;;;;;;7.50;100.00;97260.94;5061290;28;20064;-65
2024/03/16 03:56:58;;;;;;;3.25;1.00;;;;;;;7.50;100.00;97262.81;5057990;28;20095;-65
2024/03/16 03:59:25;;;;;;;4.72;0.90;;;;;;;7.50;100.00;97273.59;5061603;28;20156;-65
2024/03/16 04:01:52;;;;;;;5.55;1.10;;;;;;;7.48;100.00;97270.31;5062293;28;20071;-65
2024/03/16 04:04:18;;;;;;;4.00;1.00;;;;;;;7.49;100.00;97274.66;5059569;28;20032;-64
2024/03/16 04:06:46;;;;;;;3.50;1.13;;;;;;;7.59;100.00;97247.91;5072740;28;20075;-65
2024/03/16 04:09:14;;;;;;;3.90;0.70;;;;;;;7.65;100.00;97233.50;5061268;28;20123;-65
2024/03/16 04:11:40;;;;;;;1.38;0.30;;;;;;;7.66;100.00;97197.41;5052527;28;20049;-65
2024/03/16 04:14:07;;;;;;;2.97;0.65;;;;;;;7.80;100.00;97191.75;5058403;28;20039;-65
2024/03/16 04:16:34;;;;;;;0.28;0.13;;;;;;;7.74;100.00;97206.19;5063320;28;20078;-65
2024/03/16 04:19:01;;;;;;;0.35;0.20;;;;;;;7.68;100.00;97195.28;5062321;28;20124;-65
2024/03/16 04:21:28;;;;;;;1.92;0.30;;;;;;;7.66;100.00;97192.03;5069166;28;20079;-65
2024/03/16 04:23:54;;;;;;;0.75;0.65;;;;;;;7.66;100.00;97194.72;5060172;28;20037;-65
2024/03/16 04:26:22;;;;;;;1.08;0.30;;;;;;;7.64;100.00;97202.25;5058044;28;20123;-65
2024/03/16 04:28:49;;;;;;;0.30;0.20;;;;;;;7.64;100.00;97198.72;5059470;28;20124;-65
2024/03/16 04:31:17;;;;;;;0.73;0.30;;;;;;;7.53;100.00;97203.06;5051937;28;20044;-64
2024/03/16 04:33:43;;;;;;;1.08;0.20;;;;;;;7.50;100.00;97200.84;5057195;28;20485;-65
2024/03/16 04:36:12;;;;;;;1.33;0.50;;;;;;;7.45;100.00;97201.56;5050658;28;20036;-64
2024/03/16 04:38:39;;;;;;;0.85;0.30;;;;;;;7.50;100.00;97196.28;5048645;28;20484;-64
2024/03/16 04:41:05;;;;;;;1.15;0.40;;;;;;;7.54;100.00;97199.31;5052275;28;20040;-65
2024/03/16 04:43:32;;;;;;;1.65;0.32;;;;;;;7.62;100.00;97201.66;5052053;28;20037;-65
2024/03/16 04:45:58;;;;;;;1.00;0.40;;;;;;;7.54;100.00;97202.00;5049107;28;20392;-64
2024/03/16 04:48:25;;;;;;;2.28;0.50;;;;;;;7.47;100.00;97202.13;5048822;28;20473;-64
2024/03/16 04:50:54;;;;;;;1.15;0.55;;;;;;;7.41;100.00;97197.69;5050534;28;20071;-64
2024/03/16 04:53:21;;;;;;;2.45;0.43;;;;;;;7.36;100.00;97194.88;5057636;28;20044;-64
2024/03/16 04:55:50;;;;;;;1.40;0.40;;;;;;;7.36;100.00;97192.19;5053334;28;20044;-64
2024/03/16 04:58:17;;;;;;;0.57;0.40;;;;;;;7.35;100.00;97204.84;5056836;28;20151;-64
2024/03/16 05:00:44;;;;;;;1.10;0.52;;;;;;;7.45;100.00;97196.19;5052516;28;20048;-64
2024/03/16 05:03:11;;;;;;;0.35;0.30;;;;;;;7.46;100.00;97197.81;5051748;28;20120;-64
2024/03/16 05:05:37;;;;;;;0.52;0.20;;;;;;;7.56;100.00;97191.81;5050440;28;20037;-64
2024/03/16 05:08:04;;;;;;;1.90;0.20;;;;;;;7.54;100.00;97197.44;5059579;28;20033;-64
2024/03/16 05:10:31;;;;;;;0.15;0.13;;;;;;;7.58;100.00;97199.66;5060910;28;20550;-64
2024/03/16 05:12:57;;;;;;;0.38;0.20;;;;;;;7.49;100.00;97200.00;5050429;28;20048;-65
2024/03/16 05:15:24;;;;;;;0.57;0.28;;;;;;;7.38;100.00;97201.66;5056096;28;20044;-65
2024/03/16 05:17:51;;;;;;;0.10;0.10;;;;;;;7.27;100.00;97199.81;5054263;28;20593;-64
2024/03/16 05:20:18;;;;;;;0.55;0.10;;;;;;;7.23;100.00;97198.66;5054379;28;20669;-65
2024/03/16 05:22:45;;;;;;;1.10;0.20;;;;;;;7.28;100.00;97201.44;5056844;28;20032;-64
2024/03/16 05:25:11;;;;;;;4.30;0.30;;;;;;;7.27;100.00;97206.00;5064781;28;20051;-64
2024/03/16 05:27:38;;;;;;;0.80;0.63;;;;;;;7.27;100.00;97203.31;5055645;28;20044;-65
2024/03/16 05:30:07;;;;;;;1.75;0.20;;;;;;;7.17;100.00;97205.78;5051332;28;20068;-65
2024/03/16 05:32:34;;;;;;;0.20;0.10;;;;;;;7.20;100.00;97205.31;5064240;28;20054;-65
2024/03/16 05:35:01;;;;;;;0.20;0.20;;;;;;;7.22;100.00;97211.28;5060706;28;20037;-65
2024/03/16 05:37:27;;;;;;;0.40;0.20;;;;;;;7.28;100.00;97207.66;5059787;28;21472;-65
2024/03/16 05:39:57;;;;;;;0.50;0.20;;;;;;;7.46;100.00;97207.75;5056395;28;20123;-65
2024/03/16 05:42:23;;;;;;;0.40;0.10;;;;;;;7.46;100.00;97208.59;5057194;28;20048;-65
2024/03/16 05:44:51;;;;;;;0.40;0.35;;;;;;;7.38;100.00;97209.75;5048776;28;20032;-65
2024/03/16 05:47:21;;;;;;;2.35;0.90;;;;;;;7.33;100.00;97206.94;5051231;28;20487;-65
2024/03/16 05:49:48;;;;;;;0.70;0.38;;;;;;;7.24;100.00;97208.34;5054524;28;20048;-65
2024/03/16 05:52:14;;;;;;;0.57;0.30;;;;;;;7.15;100.00;97208.69;5058275;28;20051;-65
2024/03/16 05:54:41;;;;;;;0.40;0.40;;;;;;;7.19;100.00;97214.44;5062211;28;20083;-65
2024/03/16 05:57:07;;;;;;;2.03;0.50;;;;;;;7.26;100.00;97217.84;5056219;28;20080;-65
2024/03/16 05:59:34;;;;;;;0.73;0.40;;;;;;;7.20;100.00;97217.94;5044487;28;20535;-65
2024/03/16 06:02:01;;;;;;;1.95;0.50;;;;;;;7.29;100.00;97221.94;5055331;28;20047;-65
2024/03/16 06:04:27;;;;;;;1.17;0.50;;;;;;;7.35;100.00;97242.56;5070118;28;20865;-65
2024/03/16 06:06:55;;;;;;;0.73;0.30;;;;;;;7.44;100.00;97242.22;5055827;28;20642;-65
2024/03/16 06:09:21;;;;;;;0.45;0.30;;;;;;;7.42;100.00;97240.53;5057576;28;20048;-65
2024/03/16 06:11:48;;;;;;;1.45;0.47;;;;;;;7.50;100.00;97238.56;5064176;28;20115;-65
2024/03/16 06:14:15;;;;;;;1.80;0.40;;;;;;;7.57;100.00;97246.50;5059881;28;20060;-65
2024/03/16 06:16:41;;;;;;;0.63;0.32;;;;;;;7.61;100.00;97255.78;5056631;28;20040;-64
2024/03/16 06:19:08;;;;;;;1.73;0.40;;;;;;;7.65;100.00;97251.56;5053452;28;20036;-64
2024/03/16 06:21:34;;;;;;;1.23;0.28;;;;;;;7.63;100.00;97250.97;5046667;28;20051;-64
2024/03/16 06:24:03;;;;;;;2.08;0.70;;;;;;;7.67;100.00;97252.94;5055754;28;20128;-64
2024/03/16 06:26:36;;;;;;;1.23;0.50;;;;;;;7.84;100.00;97262.19;5054649;28;20041;-64
2024/03/16 06:29:09;;;;;;;4.18;0.50;;;;;;;7.89;100.00;97268.50;5066492;28;20195;-64
2024/03/16 06:31:37;;;;;;;1.92;0.40;;;;;;;7.97;100.00;97270.03;5065701;28;20048;-64
2024/03/16 06:34:04;;;;;;;4.78;0.50;;;;;;;7.97;100.00;97271.91;5055543;28;20095;-64
2024/03/16 06:36:32;;;;;;;4.13;0.52;;;;;;;8.07;100.00;97278.31;5071353;28;20127;-65
2024/03/16 06:39:00;;;;;;;1.50;0.47;;;;;;;7.97;100.00;97280.00;5057476;28;20636;-64
2024/03/16 06:41:26;;;;;;;0.75;0.35;;;;;;;7.91;100.00;97285.28;5061989;28;20036;-64
2024/03/16 06:43:53;;;;;;;0.30;0.10;;;;;;;8.02;100.00;97283.63;5055856;28;20066;-64
2024/03/16 06:46:21;;;;;;;2.50;0.55;;;;;;;8.02;100.00;97286.31;5063129;28;20487;-64
2024/03/16 06:48:49;;;;;;;3.08;0.35;;;;;;;8.13;100.00;97290.03;5067689;28;20097;-64
2024/03/16 06:51:17;;;;;;;0.50;0.30;;;;;;;8.21;100.00;97299.63;5060474;28;20051;-64
2024/03/16 06:53:47;;;;;;;2.08;0.30;;;;;;;8.29;100.00;97299.25;5053884;28;20059;-64
2024/03/16 06:56:14;;;;;;;1.13;0.30;;;;;;;8.32;100.00;97311.44;5060898;28;20440;-64
2024/03/16 06:58:41;;;;;;;2.30;1.17;;;;;;;8.33;100.00;97313.06;5074297;28;20102;-64
2024/03/16 07:01:11;;;;;;;0.93;0.38;;;;;;;8.28;100.00;97316.50;5051465;28;20076;-64
2024/03/16 07:03:39;;;;;;;1.13;0.50;;;;;;;8.30;100.00;97313.56;5064293;28;20048;-64
2024/03/16 07:06:08;;;;;;;1.60;0.40;;;;;;;8.35;100.00;97320.94;5065042;28;20396;-64
2024/03/16 07:08:38;;;;;;;1.05;0.50;;;;;;;8.39;100.00;97330.19;5065759;28;20090;-64
2024/03/16 07:11:05;;;;;;;3.22;0.50;;;;;;;8.43;100.00;97329.50;5061071;28;20032;-64
2024/03/16 07:13:32;;;;;;;1.67;0.52;;;;;;;8.48;100.00;97336.88;5061893;28;20558;-64
2024/03/16 07:15:59;;;;;;;3.72;0.95;;;;;;;8.24;100.00;97336.09;5047510;28;20051;-63
2024/03/16 07:18:26;;;;;;;1.13;0.40;;;;;;;8.28;100.00;97350.75;5042377;28;20052;-65
2024/03/16 07:20:52;;;;;;;2.28;0.68;;;;;;;8.11;100.00;97359.56;5055563;28;20049;-63
2024/03/16 07:23:19;;;;;;;4.60;0.93;;;;;;;8.14;100.00;97353.69;5062007;28;20135;-64
2024/03/16 07:25:51;;;;;;;5.30;1.10;;;;;;;8.12;100.00;97361.22;5052758;28;20043;-65
2024/03/16 07:28:18;;;;;;;3.47;1.00;;;;;;;8.07;100.00;97361.91;5054509;28;20061;-65
2024/03/16 07:30:45;;;;;;;3.63;1.00;;;;;;;8.26;100.00;97366.38;5055742;28;20044;-63
2024/03/16 07:33:13;;;;;;;3.08;1.45;;;;;;;8.23;100.00;97366.81;5059274;28;20037;-65
2024/03/16 07:35:40;;;;;;;3.75;1.10;;;;;;;8.30;100.00;97371.03;5060641;28;20360;-64
2024/03/16 07:38:07;;;;;;;3.90;1.35;;;;;;;8.53;100.00;97372.09;5055572;28;20050;-66
2024/03/16 07:40:33;;;;;;;3.35;1.20;;;;;;;8.59;100.00;97367.63;5076434;28;20119;-66
2024/03/16 07:43:01;;;;;;;4.65;1.08;;;;;;;8.50;100.00;97367.13;5056647;28;20040;-65
2024/03/16 07:45:28;;;;;;;2.85;0.95;;;;;;;8.44;100.00;97377.00;5056814;28;20655;-66
2024/03/16 07:47:54;;;;;;;3.53;0.70;;;;;;;8.72;100.00;97377.31;5072573;28;20474;-62
2024/03/16 07:50:21;;;;;;;1.60;0.65;;;;;;;8.92;100.00;97379.56;5059306;28;20087;-64
2024/03/16 07:52:48;;;;;;;3.40;0.85;;;;;;;9.06;100.00;97379.28;5063274;28;20267;-64
2024/03/16 07:55:14;;;;;;;2.05;0.45;;;;;;;9.27;100.00;97390.47;5059036;28;20060;-64
2024/03/16 07:57:42;;;;;;;2.17;0.77;;;;;;;9.12;100.00;97394.53;5053350;28;20041;-65
2024/03/16 08:00:10;;;;;;;2.92;0.60;;;;;;;9.03;100.00;97394.09;5060144;28;20040;-64
2024/03/16 08:02:37;;;;;;;2.38;0.60;;;;;;;9.26;100.00;97408.56;5057952;28;20049;-64
2024/03/16 08:05:04;;;;;;;1.17;0.43;;;;;;;9.36;100.00;97399.81;5055549;28;20040;-66
2024/03/16 08:07:31;;;;;;;1.45;0.50;;;;;;;9.52;100.00;97403.63;5063785;28;20051;-65
2024/03/16 08:09:57;;;;;;;1.45;0.40;;;;;;;9.42;100.00;97406.13;5060370;28;20044;-69
2024/03/16 08:12:24;;;;;;;2.30;0.50;;;;;;;9.60;100.00;97405.91;5065640;28;20079;-63
2024/03/16 08:14:50;;;;;;;2.25;0.28;;;;;;;9.63;100.00;97410.81;5055767;28;20048;-64
2024/03/16 08:17:17;;;;;;;3.40;0.80;;;;;;;9.47;100.00;97409.75;5063997;28;20040;-65
2024/03/16 08:19:44;;;;;;;2.13;0.70;;;;;;;9.32;100.00;97417.59;5062844;28;20044;-61
2024/03/16 08:22:11;;;;;;;2.70;0.45;;;;;;;9.35;100.00;97414.38;5060841;28;20063;-65
2024/03/16 08:24:37;;;;;;;3.08;0.70;;;;;;;9.39;100.00;97420.16;5062617;28;20040;-66
2024/03/16 08:27:04;;;;;;;3.00;0.73;;;;;;;9.42;100.00;97416.94;5058503;28;20037;-64
2024/03/16 08:29:30;;;;;;;3.65;1.02;;;;;;;9.32;100.00;97426.50;5070235;28;20044;-70
2024/03/16 08:31:58;;;;;;;2.15;0.80;;;;;;;9.50;100.00;97430.88;5060530;28;20036;-70
2024/03/16 08:34:25;;;;;;;2.15;0.73;;;;;;;9.56;100.00;97428.25;5058929;28;20114;-70
2024/03/16 08:36:51;;;;;;;3.30;0.65;;;;;;;9.78;100.00;97431.06;5064162;28;20048;-70
2024/03/16 08:39:18;;;;;;;2.33;0.60;;;;;;;9.72;100.00;97427.47;5052164;28;20098;-70
2024/03/16 08:41:45;;;;;;;4.07;0.70;;;;;;;9.81;100.00;97435.16;5037902;28;20059;-66
2024/03/16 08:44:12;;;;;;;1.98;0.60;;;;;;;9.72;100.00;97446.38;5035196;28;21846;-63
2024/03/16 08:46:39;;;;;;;2.05;0.73;;;;;;;9.71;100.00;97450.16;5039488;28;20131;-63
2024/03/16 08:49:07;;;;;;;2.00;0.60;;;;;;;9.71;100.00;97450.16;5050745;28;20044;-63
2024/03/16 08:51:34;;;;;;;2.42;0.80;;;;;;;9.80;100.00;97449.75;5064044;28;20149;-62
2024/03/16 08:54:00;;;;;;;2.05;0.60;;;;;;;9.82;100.00;97458.44;5063264;28;20047;-62
2024/03/16 08:56:28;;;;;;;3.35;0.50;;;;;;;9.87;100.00;97456.66;5044014;28;20855;-66
2024/03/16 08:58:55;;;;;;;1.17;0.38;;;;;;;10.14;100.00;97466.00;5059537;28;20654;-66
2024/03/16 09:01:22;;;;;;;0.85;0.30;;;;;;;10.13;100.00;97453.50;5057582;28;20044;-65
2024/03/16 09:03:49;;;;;;;2.45;0.60;;;;;;;10.42;100.00;97469.63;5057435;28;20044;-65
2024/03/16 09:06:16;;;;;;;2.80;0.63;;;;;;;10.20;100.00;97462.28;5053759;28;20154;-64
2024/03/16 09:08:43;;;;;;;3.33;0.52;;;;;;;10.05;100.00;97460.16;5058591;28;20040;-65
2024/03/16 09:11:10;;;;;;;3.20;0.73;;;;;;;9.98;100.00;97465.75;5052215;28;20638;-64
2024/03/16 09:13:36;;;;;;;2.08;0.70;;;;;;;10.02;100.00;97466.91;5056574;28;20044;-63
2024/03/16 09:16:05;;;;;;;1.52;0.93;;;;;;;9.98;100.00;97464.91;5045628;28;20756;-64
2024/03/16 09:18:33;;;;;;;3.40;0.60;;;;;;;10.00;100.00;97463.59;5058616;28;20040;-63
2024/03/16 09:21:05;;;;;;;0.82;0.50;;;;;;;10.00;100.00;97465.50;5057185;28;20498;-64
2024/03/16 09:23:31;;;;;;;2.35;0.50;;;;;;;10.11;100.00;97474.59;5049446;28;20123;-65
2024/03/16 09:25:58;;;;;;;1.52;0.65;;;;;;;10.33;100.00;97474.69;5060567;28;20588;-63
2024/03/16 09:28:24;;;;;;;3.33;0.70;;;;;;;10.50;100.00;97477.38;5058404;28;20044;-68
2024/03/16 09:30:51;;;;;;;1.95;0.60;;;;;;;10.42;100.00;97480.47;5057323;28;20047;-65
2024/03/16 09:33:22;;;;;;;2.00;0.60;;;;;;;10.46;100.00;97472.72;5055054;28;20045;-65
2024/03/16 09:35:52;;;;;;;2.70;0.93;;;;;;;10.41;100.00;97471.56;5059390;28;20036;-65
2024/03/16 09:38:18;;;;;;;2.08;0.50;;;;;;;10.28;100.00;97485.41;5061416;28;20048;-66
2024/03/16 09:40:51;;;;;;;3.55;0.90;;;;;;;10.42;100.00;97499.41;5064255;28;20040;-65
2024/03/16 09:43:18;;;;;;;2.15;0.55;;;;;;;10.48;100.00;97500.34;5053195;28;20566;-65
2024/03/16 09:45:46;;;;;;;3.08;0.93;;;;;;;10.19;100.00;97495.84;5067017;28;20044;-65
2024/03/16 09:48:12;;;;;;;2.83;0.52;;;;;;;10.17;100.00;97487.13;5053218;28;20048;-65
2024/03/16 09:50:44;;;;;;;0.93;0.50;;;;;;;10.31;100.00;97501.16;5053757;28;20051;-65
2024/03/16 09:53:33;;;;;;;0.90;0.40;;;;;;;10.04;100.00;97500.97;5051700;28;20040;-65
2024/03/16 09:56:00;;;;;;;1.75;0.50;;;;;;;10.03;100.00;97502.88;5053664;28;20101;-65
2024/03/16 09:58:28;;;;;;;1.20;0.50;;;;;;;10.30;100.00;97501.41;5067610;28;20439;-65
2024/03/16 10:00:54;;;;;;;2.50;0.50;;;;;;;10.28;100.00;97507.03;5061714;28;20040;-65
2024/03/16 10:03:21;;;;;;;1.15;0.30;;;;;;;10.30;100.00;97509.50;5066786;28;20041;-66
2024/03/16 10:05:47;;;;;;;3.00;0.60;;;;;;;10.30;100.00;97512.22;5064480;28;20040;-65
2024/03/16 10:08:17;;;;;;;0.90;0.30;;;;;;;10.25;100.00;97507.56;5063109;28;20412;-66
2024/03/16 10:10:44;;;;;;;0.32;0.20;;;;;;;10.16;100.00;97509.84;5061540;28;20066;-66
2024/03/16 10:13:11;;;;;;;1.15;0.20;;;;;;;10.09;100.00;97517.28;5068959;28;20044;-65
2024/03/16 10:15:46;;;;;;;3.95;1.00;;;;;;;10.19;100.00;97520.19;5069915;28;20564;-65
2024/03/16 10:18:16;;;;;;;1.77;0.90;;;;;;;10.50;100.00;97530.69;5061317;28;20701;-66
2024/03/16 10:20:43;;;;;;;1.85;0.40;;;;;;;10.33;100.00;97523.38;5057770;28;20036;-65
2024/03/16 10:23:15;;;;;;;3.08;0.68;;;;;;;10.54;100.00;97538.06;5076174;28;20040;-65
2024/03/16 10:25:46;;;;;;;2.60;0.50;;;;;;;10.52;100.00;97532.09;5064793;28;20530;-65
2024/03/16 10:28:17;;;;;;;2.58;0.40;;;;;;;10.34;100.00;97537.72;5069549;28;20102;-65
2024/03/16 10:30:46;;;;;;;1.55;0.47;;;;;;;10.61;100.00;97545.22;5058278;28;20064;-66
2024/03/16 10:33:12;;;;;;;1.08;0.40;;;;;;;10.62;100.00;97539.53;5067387;28;20037;-68
2024/03/16 10:35:41;;;;;;;1.35;0.47;;;;;;;10.71;100.00;97539.13;5066895;28;20040;-67
2024/03/16 10:38:13;;;;;;;1.33;0.60;;;;;;;10.61;100.00;97540.63;5067708;28;20037;-66
2024/03/16 10:40:41;;;;;;;;;;;;;;;10.62;100.00;97554.97;5054456;28;20055;-66
2024/03/16 10:43:14;;;;;;;1.40;0.38;;;;;;;10.79;100.00;97555.78;5064217;28;19929;-66
2024/03/16 10:45:45;;;;;;;1.60;0.30;;;;;;;11.16;100.00;97548.94;5074685;28;20098;-66
2024/03/16 10:48:15;;;;;;;0.50;0.32;;;;;;;11.09;100.00;97552.94;5063376;28;20047;-67
2024/03/16 10:50:48;;;;;;;1.48;0.45;;;;;;;11.08;100.00;97556.69;5062008;28;20033;-66
2024/03/16 10:53:15;;;;;;;2.58;0.50;;;;;;;11.47;100.00;97551.22;5063963;28;20037;-66
2024/03/16 10:55:41;;;;;;;1.27;0.43;;;;;;;11.31;100.00;97556.47;5065600;28;20047;-65
2024/03/16 10:58:19;;;;;;;0.80;0.47;;;;;;;11.72;100.00;97547.13;5061047;28;20051;-66
2024/03/16 11:00:45;;;;;;;1.02;0.40;;;;;;;12.00;100.00;97549.84;5064176;28;20109;-66
2024/03/16 11:03:31;;;;;;;3.15;0.50;;;;;;;12.31;100.00;97552.91;5062070;28;20044;-66
2024/03/16 11:06:01;;;;;;;1.48;0.50;;;;;;;12.26;100.00;97548.22;5069111;28;20039;-66
2024/03/16 11:08:52;;;;;;;0.85;0.43;;;;;;;12.52;100.00;97545.72;5054615;28;20944;-66
2024/03/16 11:11:26;;;;;;;0.20;0.20;;;;;;;12.51;100.00;97551.41;5068216;28;20521;-66
2024/03/16 11:14:07;;;;;;;1.45;0.43;;;;;;;12.78;100.00;97550.53;5063562;28;20101;-66
2024/03/16 11:16:33;;;;;;;1.67;0.55;;;;;;;12.34;100.00;97557.78;5066376;28;20106;-66
2024/03/16 11:19:09;;;;;;;0.60;0.40;;;;;;;12.05;100.00;97556.19;5056645;28;20036;-66
2024/03/16 11:21:38;;;;;;;1.27;0.50;;;;;;;11.84;100.00;97564.09;5063366;28;20125;-66
2024/03/16 11:24:12;;;;;;;0.77;0.30;;;;;;;10.98;100.00;97562.81;5056120;28;20041;-65
2024/03/16 11:26:40;;;;;;;2.38;0.47;;;;;;;10.51;100.00;97564.84;5053526;28;20077;-66
2024/03/16 11:29:14;;;;;;;1.38;0.40;;;;;;;10.40;100.00;97580.88;5057053;28;20036;-66
2024/03/16 11:31:40;;;;;;;0.85;0.40;;;;;;;10.73;100.00;97567.59;5051918;28;20101;-65
2024/03/16 11:34:13;;;;;;;1.80;0.40;;;;;;;10.46;100.00;97573.69;5058752;28;20055;-65